createdAt,value
2022-11-22T00:00:12.387Z,384.45
2022-11-22T00:00:44.947Z,387.73
2022-11-22T00:01:17.222Z,388.58
2022-11-22T00:01:49.590Z,393.38
2022-11-22T00:02:22.241Z,390.95
2022-11-22T00:02:54.759Z,388.85
2022-11-22T00:03:27.073Z,389.83
2022-11-22T00:03:59.533Z,387.88
2022-11-22T00:04:31.794Z,387.48
2022-11-22T00:05:04.407Z,388.35
2022-11-22T00:05:36.862Z,387.38
2022-11-22T00:06:09.108Z,387.65
2022-11-22T00:06:41.364Z,385.80
2022-11-22T00:07:13.799Z,394.65
2022-11-22T00:07:46.499Z,390.25
2022-11-22T00:08:18.880Z,397.52
2022-11-22T00:08:51.137Z,396.38
2022-11-22T00:09:23.473Z,390.80
2022-11-22T00:09:55.877Z,391.23
2022-11-22T00:10:28.146Z,391.40
2022-11-22T00:11:00.422Z,383.95
2022-11-22T00:11:32.888Z,391.45
2022-11-22T00:12:05.246Z,389.27
2022-11-22T00:12:38.797Z,396.33
2022-11-22T00:13:11.055Z,397.88
2022-11-22T00:13:43.293Z,401.00
2022-11-22T00:14:15.657Z,386.60
2022-11-22T00:14:50.532Z,390.00
2022-11-22T00:15:26.589Z,398.05
2022-11-22T00:16:02.854Z,388.83
2022-11-22T00:16:35.322Z,406.85
2022-11-22T00:17:07.754Z,399.65
2022-11-22T00:17:40.057Z,404.25
2022-11-22T00:18:12.454Z,390.83
2022-11-22T00:18:44.770Z,392.67
2022-11-22T00:19:17.095Z,391.83
2022-11-22T00:19:49.342Z,393.40
2022-11-22T00:20:21.648Z,390.92
2022-11-22T00:20:53.982Z,391.63
2022-11-22T00:21:26.287Z,395.60
2022-11-22T00:21:58.545Z,408.08
2022-11-22T00:22:31.581Z,401.92
2022-11-22T00:23:04.137Z,395.15
2022-11-22T00:23:36.482Z,395.83
2022-11-22T00:24:08.812Z,394.38
2022-11-22T00:24:41.160Z,398.45
2022-11-22T00:25:13.959Z,401.83
2022-11-22T00:25:46.278Z,396.70
2022-11-22T00:26:18.748Z,403.17
2022-11-22T00:26:51.091Z,397.20
2022-11-22T00:27:23.494Z,396.85
2022-11-22T00:27:55.824Z,405.40
2022-11-22T00:28:28.094Z,402.67
2022-11-22T00:29:00.453Z,393.60
2022-11-22T00:29:32.938Z,393.08
2022-11-22T00:30:05.856Z,393.40
2022-11-22T00:30:38.149Z,400.67
2022-11-22T00:31:10.426Z,394.50
2022-11-22T00:31:42.768Z,393.05
2022-11-22T00:32:15.092Z,391.10
2022-11-22T00:32:47.749Z,395.95
2022-11-22T00:33:20.019Z,392.70
2022-11-22T00:33:52.265Z,384.30
2022-11-22T00:34:24.592Z,385.83
2022-11-22T00:34:56.869Z,386.98
2022-11-22T00:35:29.168Z,385.98
2022-11-22T00:36:01.503Z,385.60
2022-11-22T00:36:34.034Z,388.42
2022-11-22T00:37:06.524Z,387.38
2022-11-22T00:37:38.786Z,388.55
2022-11-22T00:38:11.049Z,386.48
2022-11-22T00:38:43.975Z,384.30
2022-11-22T00:39:16.631Z,385.63
2022-11-22T00:39:48.948Z,394.70
2022-11-22T00:40:21.330Z,391.77
2022-11-22T00:40:53.662Z,385.95
2022-11-22T00:41:25.997Z,384.33
2022-11-22T00:41:58.310Z,382.67
2022-11-22T00:42:30.605Z,384.88
2022-11-22T00:43:02.882Z,383.92
2022-11-22T00:43:35.173Z,383.48
2022-11-22T00:44:07.676Z,383.50
2022-11-22T00:44:39.937Z,380.48
2022-11-22T00:45:12.511Z,382.30
2022-11-22T00:45:44.833Z,380.65
2022-11-22T00:46:17.085Z,380.15
2022-11-22T00:46:49.565Z,377.27
2022-11-22T00:47:21.944Z,381.58
2022-11-22T00:47:54.219Z,381.08
2022-11-22T00:48:26.519Z,379.95
2022-11-22T00:48:58.823Z,382.25
2022-11-22T00:49:31.599Z,396.05
2022-11-22T00:50:04.983Z,390.30
2022-11-22T00:50:37.480Z,390.30
2022-11-22T00:51:09.891Z,388.80
2022-11-22T00:51:42.581Z,388.08
2022-11-22T00:52:14.898Z,383.02
2022-11-22T00:52:47.160Z,386.27
2022-11-22T00:53:19.546Z,380.70
2022-11-22T00:53:51.934Z,385.45
2022-11-22T00:54:24.223Z,383.45
2022-11-22T00:54:56.541Z,381.95
2022-11-22T00:55:28.874Z,383.33
2022-11-22T00:56:01.293Z,387.05
2022-11-22T00:56:33.934Z,390.67
2022-11-22T00:57:06.258Z,392.67
2022-11-22T00:57:38.507Z,382.58
2022-11-22T00:58:10.802Z,379.17
2022-11-22T00:58:43.058Z,379.45
2022-11-22T00:59:15.344Z,378.38
2022-11-22T00:59:47.652Z,380.40
2022-11-22T01:00:20.107Z,380.50
2022-11-22T01:00:56.615Z,387.13
2022-11-22T01:01:29.171Z,381.00
2022-11-22T01:02:01.542Z,383.77
2022-11-22T01:02:33.824Z,381.45
2022-11-22T01:03:06.488Z,379.15
2022-11-22T01:03:38.784Z,385.02
2022-11-22T01:04:11.053Z,381.90
2022-11-22T01:04:43.368Z,380.35
2022-11-22T01:05:18.217Z,380.80
2022-11-22T01:05:50.508Z,387.52
2022-11-22T01:06:22.799Z,379.80
2022-11-22T01:06:55.096Z,388.85
2022-11-22T01:07:27.492Z,391.30
2022-11-22T01:07:59.825Z,382.95
2022-11-22T01:08:32.087Z,382.05
2022-11-22T01:09:04.399Z,385.77
2022-11-22T01:09:36.682Z,387.63
2022-11-22T01:10:09.240Z,385.58
2022-11-22T01:10:41.668Z,391.25
2022-11-22T01:11:15.986Z,381.40
2022-11-22T01:11:48.467Z,386.50
2022-11-22T01:12:21.032Z,383.77
2022-11-22T01:12:53.472Z,386.27
2022-11-22T01:13:26.193Z,383.05
2022-11-22T01:13:58.439Z,390.10
2022-11-22T01:14:30.706Z,390.67
2022-11-22T01:15:03.422Z,378.70
2022-11-22T01:15:35.882Z,377.80
2022-11-22T01:16:09.450Z,379.80
2022-11-22T01:16:41.780Z,380.13
2022-11-22T01:17:14.031Z,378.95
2022-11-22T01:17:46.465Z,386.45
2022-11-22T01:18:18.822Z,383.85
2022-11-22T01:18:51.082Z,384.00
2022-11-22T01:19:23.324Z,388.23
2022-11-22T01:19:55.559Z,382.92
2022-11-22T01:20:27.827Z,382.27
2022-11-22T01:21:00.122Z,383.08
2022-11-22T01:21:32.384Z,387.75
2022-11-22T01:22:04.711Z,378.27
2022-11-22T01:22:36.991Z,379.08
2022-11-22T01:23:09.283Z,378.83
2022-11-22T01:23:41.693Z,376.10
2022-11-22T01:24:13.947Z,381.42
2022-11-22T01:24:46.529Z,385.20
2022-11-22T01:25:18.845Z,383.33
2022-11-22T01:25:51.124Z,382.98
2022-11-22T01:26:23.422Z,378.25
2022-11-22T01:26:55.963Z,378.33
2022-11-22T01:27:28.201Z,379.67
2022-11-22T01:28:00.486Z,379.38
2022-11-22T01:28:32.761Z,377.08
2022-11-22T01:29:05.194Z,381.08
2022-11-22T01:29:37.453Z,381.83
2022-11-22T01:30:09.891Z,376.23
2022-11-22T01:30:42.769Z,376.50
2022-11-22T01:31:15.209Z,378.15
2022-11-22T01:31:47.559Z,378.35
2022-11-22T01:32:19.827Z,378.30
2022-11-22T01:32:52.594Z,376.95
2022-11-22T01:33:24.952Z,377.63
2022-11-22T01:33:57.662Z,376.80
2022-11-22T01:34:29.986Z,377.15
2022-11-22T01:35:02.399Z,377.73
2022-11-22T01:35:34.653Z,380.75
2022-11-22T01:36:06.969Z,378.77
2022-11-22T01:36:39.306Z,376.80
2022-11-22T01:37:11.641Z,378.83
2022-11-22T01:37:44.093Z,380.73
2022-11-22T01:38:16.390Z,389.15
2022-11-22T01:38:48.625Z,384.95
2022-11-22T01:39:20.923Z,380.83
2022-11-22T01:39:53.426Z,382.55
2022-11-22T01:40:25.693Z,382.67
2022-11-22T01:40:58.226Z,377.30
2022-11-22T01:41:30.613Z,378.90
2022-11-22T01:42:02.904Z,379.13
2022-11-22T01:42:44.201Z,375.48
2022-11-22T01:43:18.343Z,380.02
2022-11-22T01:43:50.787Z,383.33
2022-11-22T01:44:25.732Z,380.38
2022-11-22T01:45:17.953Z,381.40
2022-11-22T01:46:01.013Z,394.95
2022-11-22T01:46:36.089Z,392.60
2022-11-22T01:47:20.338Z,392.63
2022-11-22T01:47:53.136Z,392.30
2022-11-22T01:48:34.521Z,389.63
2022-11-22T01:49:27.134Z,389.08
2022-11-22T01:50:04.841Z,366.42
2022-11-22T01:50:38.193Z,384.15
2022-11-22T01:51:20.029Z,374.88
2022-11-22T01:51:54.050Z,375.92
2022-11-22T01:52:27.927Z,373.90
2022-11-22T01:53:02.836Z,375.67
2022-11-22T01:53:37.124Z,374.05
2022-11-22T01:54:12.086Z,384.88
2022-11-22T01:54:45.798Z,378.52
2022-11-22T01:55:19.044Z,374.45
2022-11-22T01:55:51.583Z,373.52
2022-11-22T01:56:25.747Z,373.40
2022-11-22T01:57:00.153Z,385.67
2022-11-22T01:57:34.823Z,383.58
2022-11-22T01:58:08.044Z,374.88
2022-11-22T01:58:41.717Z,376.73
2022-11-22T01:59:17.159Z,376.67
2022-11-22T01:59:52.378Z,375.58
2022-11-22T02:00:24.942Z,376.55
2022-11-22T02:00:57.626Z,372.73
2022-11-22T02:01:30.325Z,373.45
2022-11-22T02:02:02.721Z,368.63
2022-11-22T02:02:35.167Z,374.98
2022-11-22T02:03:09.511Z,372.33
2022-11-22T02:03:43.516Z,372.83
2022-11-22T02:04:17.360Z,374.15
2022-11-22T02:04:49.874Z,384.52
2022-11-22T02:05:24.261Z,374.23
2022-11-22T02:05:56.700Z,375.73
2022-11-22T02:06:34.584Z,378.13
2022-11-22T02:07:13.580Z,376.48
2022-11-22T02:07:57.802Z,373.55
2022-11-22T02:08:47.192Z,381.27
2022-11-22T02:09:19.657Z,373.85
2022-11-22T02:09:52.912Z,376.02
2022-11-22T02:10:28.837Z,384.60
2022-11-22T02:11:02.495Z,386.52
2022-11-22T02:11:36.918Z,376.90
2022-11-22T02:12:10.089Z,377.80
2022-11-22T02:12:42.525Z,378.65
2022-11-22T02:13:16.215Z,375.98
2022-11-22T02:13:50.597Z,374.92
2022-11-22T02:14:25.527Z,376.40
2022-11-22T02:14:58.363Z,376.23
2022-11-22T02:15:31.194Z,377.30
2022-11-22T02:16:03.939Z,374.25
2022-11-22T02:16:37.400Z,381.88
2022-11-22T02:17:09.654Z,389.10
2022-11-22T02:17:41.929Z,391.42
2022-11-22T02:18:14.411Z,390.83
2022-11-22T02:18:46.808Z,398.42
2022-11-22T02:19:39.407Z,391.70
2022-11-22T02:20:12.331Z,405.85
2022-11-22T02:20:45.269Z,402.98
2022-11-22T02:21:17.616Z,396.45
2022-11-22T02:21:51.977Z,392.80
2022-11-22T02:22:24.211Z,397.35
2022-11-22T02:23:08.765Z,400.23
2022-11-22T02:23:44.037Z,400.13
2022-11-22T02:24:26.561Z,392.48
2022-11-22T02:25:17.264Z,394.08
2022-11-22T02:25:49.558Z,385.88
2022-11-22T02:26:24.820Z,395.20
2022-11-22T02:26:57.163Z,396.40
2022-11-22T02:27:29.506Z,389.90
2022-11-22T02:28:02.011Z,389.95
2022-11-22T02:28:36.453Z,386.10
2022-11-22T02:29:08.823Z,387.00
2022-11-22T02:29:41.758Z,392.02
2022-11-22T02:30:14.043Z,394.52
2022-11-22T02:30:46.713Z,393.25
2022-11-22T02:31:37.468Z,387.30
2022-11-22T02:32:09.706Z,391.98
2022-11-22T02:32:42.072Z,389.20
2022-11-22T02:33:14.532Z,383.67
2022-11-22T02:33:46.872Z,383.48
2022-11-22T02:34:19.147Z,393.00
2022-11-22T02:34:51.714Z,382.98
2022-11-22T02:35:25.865Z,380.70
2022-11-22T02:35:58.807Z,399.92
2022-11-22T02:36:33.635Z,399.15
2022-11-22T02:37:05.886Z,389.50
2022-11-22T02:37:38.145Z,395.90
2022-11-22T02:38:13.209Z,395.67
2022-11-22T02:38:48.873Z,392.77
2022-11-22T02:39:23.895Z,386.98
2022-11-22T02:40:07.907Z,387.05
2022-11-22T02:40:42.636Z,392.40
2022-11-22T02:41:14.960Z,389.88
2022-11-22T02:41:47.905Z,384.23
2022-11-22T02:42:20.327Z,389.80
2022-11-22T02:42:56.533Z,386.48
2022-11-22T02:43:28.763Z,388.33
2022-11-22T02:44:01.164Z,391.38
2022-11-22T02:44:33.732Z,390.38
2022-11-22T02:45:06.317Z,393.75
2022-11-22T02:45:38.570Z,389.65
2022-11-22T02:46:12.630Z,394.92
2022-11-22T02:46:52.356Z,401.88
2022-11-22T02:47:24.649Z,389.25
2022-11-22T02:48:10.591Z,394.42
2022-11-22T02:48:43.351Z,393.48
2022-11-22T02:49:22.644Z,396.67
2022-11-22T02:49:55.446Z,399.60
2022-11-22T02:50:27.809Z,398.98
2022-11-22T02:51:00.202Z,399.33
2022-11-22T02:51:32.492Z,414.33
2022-11-22T02:52:04.838Z,402.25
2022-11-22T02:52:37.134Z,407.80
2022-11-22T02:53:10.676Z,406.95
2022-11-22T02:53:43.449Z,404.35
2022-11-22T02:54:15.825Z,404.02
2022-11-22T02:54:48.148Z,409.02
2022-11-22T02:55:20.430Z,403.98
2022-11-22T02:55:52.761Z,398.08
2022-11-22T02:56:25.090Z,396.33
2022-11-22T02:56:57.461Z,393.08
2022-11-22T02:57:29.754Z,404.58
2022-11-22T02:58:02.051Z,404.80
2022-11-22T02:58:34.595Z,396.40
2022-11-22T02:59:06.879Z,396.67
2022-11-22T02:59:39.188Z,400.77
2022-11-22T03:00:12.075Z,399.58
2022-11-22T03:00:44.945Z,395.80
2022-11-22T03:01:17.577Z,395.05
2022-11-22T03:01:49.880Z,392.55
2022-11-22T03:02:22.168Z,401.85
2022-11-22T03:02:54.555Z,391.15
2022-11-22T03:03:26.806Z,400.58
2022-11-22T03:03:59.107Z,391.40
2022-11-22T03:04:31.417Z,396.30
2022-11-22T03:05:03.837Z,398.48
2022-11-22T03:05:36.243Z,396.70
2022-11-22T03:06:08.504Z,400.95
2022-11-22T03:06:40.806Z,398.50
2022-11-22T03:07:13.282Z,397.33
2022-11-22T03:07:45.717Z,396.98
2022-11-22T03:08:18.178Z,399.25
2022-11-22T03:08:55.890Z,402.02
2022-11-22T03:09:29.049Z,401.58
2022-11-22T03:10:01.600Z,397.30
2022-11-22T03:10:33.943Z,400.65
2022-11-22T03:11:06.279Z,403.02
2022-11-22T03:11:38.650Z,393.88
2022-11-22T03:12:11.149Z,398.02
2022-11-22T03:12:43.469Z,404.42
2022-11-22T03:13:15.879Z,405.05
2022-11-22T03:13:48.206Z,405.55
2022-11-22T03:14:20.692Z,411.23
2022-11-22T03:14:52.998Z,420.85
2022-11-22T03:15:25.536Z,413.38
2022-11-22T03:15:57.841Z,407.92
2022-11-22T03:16:31.941Z,409.20
2022-11-22T03:17:04.206Z,410.83
2022-11-22T03:17:36.884Z,415.75
2022-11-22T03:18:09.154Z,412.85
2022-11-22T03:18:41.451Z,410.60
2022-11-22T03:19:13.873Z,417.17
2022-11-22T03:19:46.202Z,402.92
2022-11-22T03:20:18.624Z,403.05
2022-11-22T03:20:50.949Z,395.02
2022-11-22T03:21:23.221Z,389.33
2022-11-22T03:21:55.559Z,388.50
2022-11-22T03:22:27.935Z,386.13
2022-11-22T03:23:00.732Z,387.23
2022-11-22T03:23:33.104Z,393.58
2022-11-22T03:24:05.861Z,387.00
2022-11-22T03:24:38.097Z,390.13
2022-11-22T03:25:10.373Z,394.48
2022-11-22T03:25:42.726Z,393.50
2022-11-22T03:26:15.035Z,390.27
2022-11-22T03:26:48.276Z,389.90
2022-11-22T03:27:20.548Z,391.88
2022-11-22T03:27:52.979Z,384.20
2022-11-22T03:28:26.053Z,385.23
2022-11-22T03:28:58.534Z,381.20
2022-11-22T03:29:31.021Z,386.23
2022-11-22T03:30:03.948Z,389.63
2022-11-22T03:30:39.517Z,385.88
2022-11-22T03:31:11.905Z,384.13
2022-11-22T03:31:44.139Z,379.95
2022-11-22T03:32:16.363Z,382.42
2022-11-22T03:32:48.661Z,386.27
2022-11-22T03:33:20.909Z,386.02
2022-11-22T03:33:53.651Z,384.27
2022-11-22T03:34:25.947Z,384.45
2022-11-22T03:34:58.218Z,385.13
2022-11-22T03:35:30.457Z,384.17
2022-11-22T03:36:03.593Z,378.77
2022-11-22T03:36:35.881Z,379.13
2022-11-22T03:37:08.186Z,383.55
2022-11-22T03:37:40.451Z,384.52
2022-11-22T03:38:12.706Z,387.92
2022-11-22T03:38:45.010Z,381.85
2022-11-22T03:39:17.338Z,379.60
2022-11-22T03:39:49.794Z,385.08
2022-11-22T03:40:22.161Z,383.30
2022-11-22T03:40:54.385Z,384.27
2022-11-22T03:41:26.724Z,385.65
2022-11-22T03:41:59.062Z,383.70
2022-11-22T03:42:31.375Z,377.08
2022-11-22T03:43:03.725Z,378.67
2022-11-22T03:43:36.073Z,384.23
2022-11-22T03:44:08.535Z,386.60
2022-11-22T03:44:40.864Z,384.23
2022-11-22T03:45:13.103Z,388.50
2022-11-22T03:45:46.422Z,385.08
2022-11-22T03:46:19.749Z,379.58
2022-11-22T03:46:52.107Z,386.42
2022-11-22T03:47:24.384Z,378.30
2022-11-22T03:47:57.253Z,380.88
2022-11-22T03:48:29.581Z,384.23
2022-11-22T03:49:01.845Z,384.45
2022-11-22T03:49:34.211Z,389.30
2022-11-22T03:50:06.619Z,387.98
2022-11-22T03:50:39.223Z,384.52
2022-11-22T03:51:11.790Z,377.85
2022-11-22T03:51:44.175Z,383.35
2022-11-22T03:52:16.438Z,378.80
2022-11-22T03:52:48.698Z,382.40
2022-11-22T03:53:20.986Z,390.23
2022-11-22T03:53:53.250Z,390.48
2022-11-22T03:54:25.552Z,387.33
2022-11-22T03:54:58.035Z,384.92
2022-11-22T03:55:30.310Z,383.60
2022-11-22T03:56:02.595Z,382.30
2022-11-22T03:56:34.942Z,386.33
2022-11-22T03:57:07.316Z,387.60
2022-11-22T03:57:39.796Z,390.02
2022-11-22T03:58:12.113Z,393.00
2022-11-22T03:58:44.456Z,382.17
2022-11-22T03:59:16.828Z,379.35
2022-11-22T03:59:49.160Z,383.25
2022-11-22T04:00:21.735Z,383.75
2022-11-22T04:00:56.635Z,378.98
2022-11-22T04:01:28.977Z,378.80
2022-11-22T04:02:01.370Z,378.67
2022-11-22T04:02:34.041Z,383.77
2022-11-22T04:03:06.339Z,385.67
2022-11-22T04:03:38.583Z,383.98
2022-11-22T04:04:11.199Z,386.27
2022-11-22T04:04:43.475Z,384.55
2022-11-22T04:05:16.252Z,387.23
2022-11-22T04:05:49.146Z,389.05
2022-11-22T04:06:21.419Z,395.02
2022-11-22T04:06:53.727Z,384.65
2022-11-22T04:07:26.230Z,387.88
2022-11-22T04:07:58.614Z,391.70
2022-11-22T04:08:31.095Z,388.48
2022-11-22T04:09:03.578Z,380.50
2022-11-22T04:09:36.017Z,388.23
2022-11-22T04:10:08.643Z,389.60
2022-11-22T04:10:40.890Z,392.42
2022-11-22T04:11:13.241Z,384.77
2022-11-22T04:11:45.615Z,384.83
2022-11-22T04:12:18.020Z,383.55
2022-11-22T04:12:50.496Z,393.75
2022-11-22T04:13:42.741Z,383.27
2022-11-22T04:14:33.533Z,382.30
2022-11-22T04:15:08.677Z,386.15
2022-11-22T04:15:40.932Z,382.73
2022-11-22T04:16:13.231Z,382.08
2022-11-22T04:16:45.535Z,385.52
2022-11-22T04:17:37.843Z,381.08
2022-11-22T04:18:10.969Z,376.60
2022-11-22T04:18:43.265Z,378.77
2022-11-22T04:19:15.649Z,390.27
2022-11-22T04:20:07.841Z,381.05
2022-11-22T04:20:59.104Z,379.73
2022-11-22T04:21:34.258Z,383.92
2022-11-22T04:22:06.634Z,382.20
2022-11-22T04:22:38.861Z,381.42
2022-11-22T04:23:11.130Z,387.45
2022-11-22T04:23:43.433Z,382.50
2022-11-22T04:24:54.038Z,382.90
2022-11-22T04:25:27.888Z,394.52
2022-11-22T04:26:00.165Z,396.05
2022-11-22T04:26:32.499Z,387.30
2022-11-22T04:27:04.756Z,392.00
2022-11-22T04:27:37.012Z,391.95
2022-11-22T04:28:10.373Z,386.38
2022-11-22T04:29:08.763Z,384.80
2022-11-22T04:29:34.985Z,390.40
2022-11-22T04:30:07.541Z,390.38
2022-11-22T04:30:58.626Z,387.35
2022-11-22T04:31:49.265Z,383.60
2022-11-22T04:32:40.265Z,384.98
2022-11-22T04:33:12.909Z,393.20
2022-11-22T04:33:45.189Z,395.23
2022-11-22T04:34:17.435Z,400.67
2022-11-22T04:34:49.877Z,405.20
2022-11-22T04:35:22.206Z,397.90
2022-11-22T04:35:54.805Z,412.10
2022-11-22T04:36:27.053Z,412.23
2022-11-22T04:36:59.793Z,413.13
2022-11-22T04:37:32.090Z,417.35
2022-11-22T04:38:04.422Z,420.20
2022-11-22T04:38:36.716Z,428.10
2022-11-22T04:39:09.053Z,417.35
2022-11-22T04:39:41.530Z,420.27
2022-11-22T04:40:13.803Z,405.02
2022-11-22T04:40:46.330Z,403.77
2022-11-22T04:41:18.610Z,402.77
2022-11-22T04:42:13.061Z,406.45
2022-11-22T04:43:03.937Z,398.38
2022-11-22T04:43:55.094Z,402.30
2022-11-22T04:44:42.287Z,400.73
2022-11-22T04:45:14.573Z,400.90
2022-11-22T04:45:47.329Z,401.90
2022-11-22T04:46:19.613Z,403.75
2022-11-22T04:46:51.909Z,400.63
2022-11-22T04:48:02.547Z,392.02
2022-11-22T04:48:35.142Z,408.52
2022-11-22T04:49:07.551Z,395.30
2022-11-22T04:49:39.799Z,389.52
2022-11-22T04:50:30.673Z,387.73
2022-11-22T04:51:21.742Z,394.30
2022-11-22T04:52:12.695Z,394.83
2022-11-22T04:52:53.970Z,396.65
2022-11-22T04:53:26.435Z,400.92
2022-11-22T04:53:58.676Z,398.58
2022-11-22T04:54:30.943Z,395.75
2022-11-22T04:55:03.321Z,399.50
2022-11-22T04:55:35.828Z,399.83
2022-11-22T04:56:08.107Z,405.23
2022-11-22T04:56:40.346Z,398.95
2022-11-22T04:57:12.592Z,394.05
2022-11-22T04:57:44.872Z,395.23
2022-11-22T04:58:17.875Z,393.63
2022-11-22T04:58:51.616Z,393.80
2022-11-22T04:59:23.915Z,397.65
2022-11-22T04:59:56.168Z,394.95
2022-11-22T05:00:29.216Z,396.60
2022-11-22T05:01:01.597Z,398.73
2022-11-22T05:01:33.950Z,400.50
2022-11-22T05:02:06.290Z,409.95
2022-11-22T05:02:38.542Z,405.50
2022-11-22T05:03:11.300Z,401.83
2022-11-22T05:03:44.019Z,403.45
2022-11-22T05:04:16.349Z,410.20
2022-11-22T05:04:50.823Z,412.00
2022-11-22T05:05:23.678Z,416.52
2022-11-22T05:05:56.049Z,411.25
2022-11-22T05:06:28.323Z,405.27
2022-11-22T05:07:00.594Z,413.23
2022-11-22T05:07:33.872Z,413.70
2022-11-22T05:08:06.979Z,420.15
2022-11-22T05:08:39.486Z,424.00
2022-11-22T05:09:11.869Z,415.00
2022-11-22T05:09:44.151Z,419.42
2022-11-22T05:10:18.979Z,424.20
2022-11-22T05:10:57.944Z,408.42
2022-11-22T05:11:30.424Z,414.48
2022-11-22T05:12:02.695Z,410.73
2022-11-22T05:12:35.075Z,412.88
2022-11-22T05:13:07.313Z,412.17
2022-11-22T05:13:40.444Z,415.33
2022-11-22T05:14:12.686Z,414.15
2022-11-22T05:14:45.065Z,406.50
2022-11-22T05:15:17.777Z,404.60
2022-11-22T05:15:51.795Z,408.00
2022-11-22T05:16:24.048Z,404.67
2022-11-22T05:16:56.679Z,405.00
2022-11-22T05:17:29.126Z,409.15
2022-11-22T05:18:01.577Z,403.77
2022-11-22T05:18:34.239Z,401.80
2022-11-22T05:19:06.693Z,395.80
2022-11-22T05:19:38.929Z,400.48
2022-11-22T05:20:11.433Z,397.08
2022-11-22T05:20:43.682Z,405.52
2022-11-22T05:21:15.975Z,400.67
2022-11-22T05:21:48.277Z,400.13
2022-11-22T05:22:40.493Z,400.23
2022-11-22T05:23:31.928Z,390.55
2022-11-22T05:24:04.334Z,396.33
2022-11-22T05:24:36.672Z,399.05
2022-11-22T05:25:09.202Z,404.70
2022-11-22T05:25:42.119Z,407.48
2022-11-22T05:26:14.433Z,405.92
2022-11-22T05:26:46.717Z,394.83
2022-11-22T05:27:19.032Z,393.15
2022-11-22T05:27:53.360Z,407.10
2022-11-22T05:28:29.573Z,397.27
2022-11-22T05:29:09.462Z,402.52
2022-11-22T05:29:41.711Z,399.08
2022-11-22T05:30:14.256Z,394.75
2022-11-22T05:30:46.600Z,400.65
2022-11-22T05:31:23.358Z,398.65
2022-11-22T05:31:55.686Z,396.42
2022-11-22T05:32:29.954Z,402.85
2022-11-22T05:33:02.268Z,400.63
2022-11-22T05:33:35.711Z,402.25
2022-11-22T05:34:08.048Z,402.33
2022-11-22T05:34:40.287Z,399.48
2022-11-22T05:35:12.599Z,409.60
2022-11-22T05:35:44.887Z,414.08
2022-11-22T05:36:17.607Z,411.38
2022-11-22T05:36:49.865Z,406.55
2022-11-22T05:37:22.855Z,408.20
2022-11-22T05:37:56.091Z,402.08
2022-11-22T05:38:28.396Z,404.20
2022-11-22T05:39:01.161Z,395.88
2022-11-22T05:39:33.429Z,395.50
2022-11-22T05:40:05.962Z,399.90
2022-11-22T05:40:38.239Z,389.95
2022-11-22T05:41:12.467Z,395.58
2022-11-22T05:41:56.195Z,402.98
2022-11-22T05:42:28.555Z,398.85
2022-11-22T05:43:00.879Z,395.75
2022-11-22T05:43:33.278Z,403.23
2022-11-22T05:44:05.792Z,404.85
2022-11-22T05:44:38.117Z,404.40
2022-11-22T05:45:10.477Z,396.77
2022-11-22T05:45:42.841Z,398.50
2022-11-22T05:46:21.001Z,405.17
2022-11-22T05:46:56.512Z,399.73
2022-11-22T05:47:28.762Z,396.45
2022-11-22T05:48:01.085Z,399.83
2022-11-22T05:48:33.408Z,395.98
2022-11-22T05:49:05.694Z,393.73
2022-11-22T05:49:38.125Z,392.52
2022-11-22T05:50:10.502Z,397.77
2022-11-22T05:50:42.754Z,399.35
2022-11-22T05:51:16.308Z,399.27
2022-11-22T05:51:48.540Z,389.65
2022-11-22T05:52:20.809Z,392.52
2022-11-22T05:52:53.100Z,388.17
2022-11-22T05:53:25.384Z,390.33
2022-11-22T05:53:57.722Z,390.20
2022-11-22T05:54:30.475Z,394.08
2022-11-22T05:55:02.793Z,395.10
2022-11-22T05:55:35.125Z,391.95
2022-11-22T05:56:08.654Z,389.90
2022-11-22T05:56:40.914Z,390.63
2022-11-22T05:57:13.256Z,390.88
2022-11-22T05:57:45.567Z,385.13
2022-11-22T05:58:17.815Z,392.25
2022-11-22T05:58:50.312Z,400.27
2022-11-22T05:59:22.872Z,394.60
2022-11-22T05:59:55.136Z,393.00
2022-11-22T06:00:27.884Z,392.10
2022-11-22T06:01:06.753Z,396.33
2022-11-22T06:01:39.123Z,392.88
2022-11-22T06:02:11.504Z,395.42
2022-11-22T06:02:43.833Z,393.95
2022-11-22T06:03:16.202Z,401.33
2022-11-22T06:03:48.829Z,392.60
2022-11-22T06:04:21.198Z,410.88
2022-11-22T06:04:53.689Z,419.40
2022-11-22T06:05:25.934Z,414.90
2022-11-22T06:05:58.282Z,413.35
2022-11-22T06:06:30.640Z,417.65
2022-11-22T06:07:08.383Z,415.45
2022-11-22T06:07:42.253Z,413.63
2022-11-22T06:08:15.037Z,423.08
2022-11-22T06:08:48.726Z,424.45
2022-11-22T06:09:21.241Z,439.55
2022-11-22T06:09:53.516Z,537.22
2022-11-22T06:10:26.039Z,568.28
2022-11-22T06:11:05.148Z,580.40
2022-11-22T06:11:37.661Z,560.30
2022-11-22T06:12:10.040Z,497.38
2022-11-22T06:12:42.740Z,487.73
2022-11-22T06:13:15.010Z,495.20
2022-11-22T06:13:48.403Z,492.25
2022-11-22T06:14:20.691Z,485.55
2022-11-22T06:14:53.044Z,484.63
2022-11-22T06:15:25.338Z,487.25
2022-11-22T06:15:59.739Z,487.85
2022-11-22T06:16:32.272Z,479.30
2022-11-22T06:17:04.883Z,491.80
2022-11-22T06:17:37.613Z,501.63
2022-11-22T06:18:10.013Z,484.15
2022-11-22T06:18:42.563Z,490.35
2022-11-22T06:19:15.003Z,494.55
2022-11-22T06:19:47.494Z,494.80
2022-11-22T06:20:19.808Z,497.95
2022-11-22T06:20:52.146Z,486.95
2022-11-22T06:21:25.146Z,490.10
2022-11-22T06:21:57.702Z,501.02
2022-11-22T06:22:29.966Z,567.83
2022-11-22T06:23:02.635Z,564.17
2022-11-22T06:23:34.918Z,570.63
2022-11-22T06:24:07.396Z,516.80
2022-11-22T06:24:39.615Z,497.65
2022-11-22T06:25:11.921Z,573.63
2022-11-22T06:25:44.259Z,491.15
2022-11-22T06:26:18.141Z,488.13
2022-11-22T06:26:50.380Z,476.27
2022-11-22T06:27:22.669Z,473.33
2022-11-22T06:27:58.449Z,495.95
2022-11-22T06:28:32.456Z,517.97
2022-11-22T06:29:04.886Z,523.50
2022-11-22T06:29:37.148Z,580.65
2022-11-22T06:30:09.863Z,575.60
2022-11-22T06:30:42.647Z,576.85
2022-11-22T06:31:19.197Z,571.25
2022-11-22T06:31:51.502Z,584.80
2022-11-22T06:32:23.960Z,520.47
2022-11-22T06:32:57.315Z,505.58
2022-11-22T06:33:29.910Z,502.90
2022-11-22T06:34:02.205Z,478.85
2022-11-22T06:34:34.461Z,464.27
2022-11-22T06:35:06.913Z,460.23
2022-11-22T06:35:39.177Z,465.15
2022-11-22T06:36:13.233Z,475.65
2022-11-22T06:36:47.069Z,465.05
2022-11-22T06:37:19.364Z,463.23
2022-11-22T06:37:56.074Z,465.15
2022-11-22T06:38:31.748Z,463.10
2022-11-22T06:39:04.111Z,462.77
2022-11-22T06:39:36.548Z,468.45
2022-11-22T06:40:11.882Z,461.98
2022-11-22T06:40:44.187Z,459.98
2022-11-22T06:41:20.850Z,463.42
2022-11-22T06:41:53.104Z,463.83
2022-11-22T06:42:25.625Z,453.02
2022-11-22T06:42:58.014Z,471.95
2022-11-22T06:43:30.792Z,460.58
2022-11-22T06:44:07.807Z,453.80
2022-11-22T06:44:40.147Z,456.15
2022-11-22T06:45:12.509Z,450.95
2022-11-22T06:45:44.774Z,462.13
2022-11-22T06:46:18.103Z,458.55
2022-11-22T06:46:50.804Z,467.02
2022-11-22T06:47:23.133Z,462.10
2022-11-22T06:47:58.016Z,469.45
2022-11-22T06:48:31.316Z,470.08
2022-11-22T06:49:03.805Z,466.70
2022-11-22T06:49:36.377Z,466.48
2022-11-22T06:50:09.018Z,459.02
2022-11-22T06:50:41.388Z,459.92
2022-11-22T06:51:23.355Z,454.92
2022-11-22T06:51:55.621Z,465.42
2022-11-22T06:52:28.086Z,469.25
2022-11-22T06:53:00.652Z,468.80
2022-11-22T06:53:46.860Z,469.58
2022-11-22T06:54:19.921Z,459.33
2022-11-22T06:54:52.175Z,466.38
2022-11-22T06:55:49.174Z,464.63
2022-11-22T06:56:27.477Z,464.52
2022-11-22T06:56:59.838Z,450.60
2022-11-22T06:57:32.093Z,455.83
2022-11-22T06:58:04.417Z,447.23
2022-11-22T06:58:37.097Z,464.73
2022-11-22T06:59:09.847Z,477.55
2022-11-22T06:59:42.103Z,489.00
2022-11-22T07:00:14.606Z,599.38
2022-11-22T07:00:46.929Z,605.55